Time;durP1;ratioP1;P1;durP2;ratioP2;P2;SDS_P1;SDS_P2;PMS_P1;PMS_P2;Temp;Humidity;BMP_temperature;BMP_pressure;BME280_temperature;BME280_humidity;BME280_pressure;Samples;Min_cycle;Max_cycle;Signal;HPM_P1;HPM_P2
2022/12/15 00:40:14;;;;;;;21.15;8.95;;;0.90;78.30;;;;;;5053353;28;20528;-45
2022/12/15 00:42:40;;;;;;;21.38;9.45;;;0.80;61.50;;;;;;5053389;28;20092;-42
2022/12/15 00:45:06;;;;;;;17.38;9.18;;;0.80;66.60;;;;;;5053263;28;20021;-43
2022/12/15 00:47:32;;;;;;;21.17;9.40;;;0.80;66.90;;;;;;5053244;28;20111;-42
2022/12/15 01:20:16;;;;;;;20.60;10.13;;;0.50;99.90;;;;;;5052701;28;20067;-45
2022/12/15 01:22:47;;;;;;;18.45;9.18;;;0.50;99.90;;;;;;5052815;28;20049;-45
2022/12/15 01:25:14;;;;;;;18.17;8.20;;;0.50;99.90;;;;;;5052505;28;20489;-44
2022/12/15 01:27:40;;;;;;;21.27;10.13;;;0.50;99.90;;;;;;5052601;28;20487;-43
2022/12/15 01:30:07;;;;;;;20.45;8.23;;;0.50;99.90;;;;;;5051140;28;20045;-43
2022/12/15 01:32:33;;;;;;;19.88;8.88;;;0.50;99.90;;;;;;5052841;28;20362;-47
2022/12/15 01:34:59;;;;;;;15.73;8.23;;;0.40;98.80;;;;;;5052579;28;20485;-44
2022/12/15 01:37:24;;;;;;;17.52;8.13;;;0.50;99.90;;;;;;5052329;28;20426;-42
2022/12/15 01:42:34;;;;;;;17.45;8.73;;;0.50;79.30;;;;;;5052197;28;20039;-42
2022/12/15 01:45:22;;;;;;;19.95;9.57;;;0.50;50.70;;;;;;5052101;28;20108;-42
2022/12/15 01:47:48;;;;;;;19.30;9.07;;;0.40;29.00;;;;;;5052275;28;20056;-44
2022/12/15 01:50:14;;;;;;;16.42;9.10;;;0.40;27.60;;;;;;5052208;28;20106;-42
2022/12/15 01:52:40;;;;;;;21.48;8.82;;;0.40;21.10;;;;;;5052019;28;20032;-43
2022/12/15 01:55:07;;;;;;;17.58;8.48;;;0.40;16.80;;;;;;5052014;28;20063;-43
2022/12/15 01:57:35;;;;;;;16.95;8.50;;;0.50;26.20;;;;;;5050655;28;20059;-42
2022/12/15 02:00:03;;;;;;;21.13;9.40;;;0.40;14.50;;;;;;5050803;28;20028;-43
2022/12/15 02:02:31;;;;;;;17.58;8.40;;;0.40;5.60;;;;;;5051602;28;20053;-43
2022/12/15 02:04:59;;;;;;;23.25;9.70;;;0.30;1.00;;;;;;5051814;28;20048;-42
2022/12/15 02:07:25;;;;;;;17.45;8.05;;;0.20;1.00;;;;;;5051895;28;20055;-43
2022/12/15 02:09:54;;;;;;;23.25;9.73;;;0.20;14.80;;;;;;5051692;28;20051;-43
2022/12/15 02:12:44;;;;;;;19.48;9.50;;;0.20;21.00;;;;;;5051752;28;20056;-42
2022/12/15 02:15:28;;;;;;;21.65;9.60;;;0.20;32.30;;;;;;5050291;28;20469;-44
2022/12/15 02:18:03;;;;;;;24.98;9.02;;;0.20;26.70;;;;;;5051522;28;20029;-42
2022/12/15 02:20:37;;;;;;;16.20;8.68;;;0.10;25.90;;;;;;5051617;28;20052;-43
2022/12/15 02:23:31;;;;;;;19.88;9.13;;;0.10;63.00;;;;;;5050133;28;20527;-43
2022/12/15 02:26:24;;;;;;;18.02;9.50;;;0.10;67.60;;;;;;5051408;28;20074;-45
2022/12/15 02:29:27;;;;;;;17.60;9.25;;;0.10;86.60;;;;;;5051501;28;20021;-43
2022/12/15 02:32:00;;;;;;;21.70;9.10;;;0.10;99.90;;;;;;5051406;28;20025;-43
2022/12/15 02:34:44;;;;;;;20.67;9.93;;;0.10;99.90;;;;;;5051348;28;20035;-42
2022/12/15 02:37:22;;;;;;;19.23;9.98;;;0.10;99.60;;;;;;5050145;28;20029;-43
2022/12/15 02:39:48;;;;;;;21.08;9.25;;;0.10;96.40;;;;;;5051438;28;20032;-42
2022/12/15 02:42:14;;;;;;;23.80;10.43;;;0.00;96.30;;;;;;5050003;28;20033;-41
2022/12/15 02:44:42;;;;;;;23.52;9.55;;;0.00;99.90;;;;;;5049996;28;20033;-42
2022/12/15 02:47:38;;;;;;;20.92;9.45;;;0.10;99.90;;;;;;5051065;28;20283;-43
2022/12/15 02:50:07;;;;;;;15.95;8.88;;;0.10;99.90;;;;;;5051087;28;20061;-42
2022/12/15 02:52:49;;;;;;;23.15;9.30;;;0.10;99.90;;;;;;5049699;28;20032;-43
2022/12/15 02:55:26;;;;;;;19.90;9.07;;;0.10;99.90;;;;;;5051014;28;20566;-41
2022/12/15 02:58:07;;;;;;;19.80;10.20;;;0.10;99.90;;;;;;5049818;28;20025;-42
2022/12/15 03:00:39;;;;;;;24.17;9.60;;;0.00;92.30;;;;;;5049648;28;20118;-41
2022/12/15 03:03:06;;;;;;;17.83;8.50;;;-0.10;93.20;;;;;;5051144;28;20078;-42
2022/12/15 03:05:32;;;;;;;20.63;9.48;;;-0.10;99.90;;;;;;5051058;28;20611;-41
2022/12/15 03:07:58;;;;;;;18.30;8.90;;;-0.10;99.90;;;;;;5051150;28;20032;-42
2022/12/15 03:10:25;;;;;;;20.88;9.48;;;-0.10;99.90;;;;;;5051115;28;20017;-42
2022/12/15 03:12:51;;;;;;;18.58;9.35;;;-0.10;99.90;;;;;;5050999;28;20108;-42
2022/12/15 03:15:17;;;;;;;23.38;9.43;;;-0.10;99.90;;;;;;5051156;28;20060;-44
2022/12/15 03:17:43;;;;;;;19.02;9.82;;;-0.10;99.90;;;;;;5051136;28;20033;-42
2022/12/15 03:20:10;;;;;;;20.33;9.40;;;-0.20;99.90;;;;;;5050853;28;20036;-41
2022/12/15 03:22:36;;;;;;;25.00;9.13;;;-0.20;99.90;;;;;;5050712;28;20036;-41
2022/12/15 03:25:03;;;;;;;21.95;10.18;;;-0.30;99.90;;;;;;5051060;28;20025;-42
2022/12/15 03:27:29;;;;;;;21.08;10.18;;;-0.30;99.90;;;;;;5050832;28;20132;-42
2022/12/15 03:29:56;;;;;;;19.58;9.95;;;-0.30;99.90;;;;;;5050890;28;20481;-42
2022/12/15 03:32:22;;;;;;;19.08;8.65;;;-0.30;99.90;;;;;;5049700;28;20021;-42
2022/12/15 03:34:48;;;;;;;18.50;9.60;;;-0.30;99.90;;;;;;5054352;28;20488;-41
2022/12/15 03:37:14;;;;;;;17.23;9.88;;;-0.30;99.90;;;;;;5054755;28;20048;-43
2022/12/15 03:39:39;;;;;;;18.85;9.80;;;-0.40;99.90;;;;;;5054563;28;20629;-41
2022/12/15 03:42:05;;;;;;;24.15;9.48;;;-0.40;99.90;;;;;;5054853;28;20069;-42
2022/12/15 03:44:31;;;;;;;18.88;9.38;;;-0.30;99.90;;;;;;5054772;28;20028;-42
2022/12/15 03:46:56;;;;;;;26.65;9.82;;;-0.40;99.90;;;;;;5054440;28;20024;-42
2022/12/15 03:49:22;;;;;;;16.50;9.25;;;-0.30;99.90;;;;;;5054727;28;20032;-42
2022/12/15 03:51:48;;;;;;;19.00;9.63;;;-0.20;99.90;;;;;;5054408;28;20029;-42
2022/12/15 03:54:14;;;;;;;18.63;8.98;;;-0.30;99.90;;;;;;5054332;28;20047;-42
2022/12/15 03:56:40;;;;;;;20.23;8.32;;;-0.30;99.90;;;;;;5052969;28;20158;-43
2022/12/15 03:59:06;;;;;;;24.15;8.48;;;-0.30;99.90;;;;;;5054275;28;20481;-41
2022/12/15 04:01:34;;;;;;;26.15;9.98;;;-0.30;99.90;;;;;;5054123;28;20049;-41
2022/12/15 04:04:01;;;;;;;21.05;9.18;;;-0.30;99.90;;;;;;5054190;28;20029;-41
2022/12/15 04:06:28;;;;;;;21.15;8.80;;;-0.20;99.90;;;;;;5054230;28;20028;-45
2022/12/15 04:08:54;;;;;;;24.63;9.95;;;-0.20;99.90;;;;;;5052983;28;20397;-41
2022/12/15 04:11:19;;;;;;;23.20;9.05;;;-0.20;99.90;;;;;;5053943;28;20025;-41
2022/12/15 04:13:45;;;;;;;19.52;9.13;;;-0.20;99.90;;;;;;5054315;28;20032;-42
2022/12/15 04:16:11;;;;;;;17.02;7.82;;;-0.20;99.90;;;;;;5053977;28;20427;-43
2022/12/15 04:18:36;;;;;;;16.63;7.63;;;-0.20;99.90;;;;;;5053978;28;20025;-42
2022/12/15 04:21:03;;;;;;;22.27;8.68;;;-0.20;99.90;;;;;;5053825;28;20083;-42
2022/12/15 04:23:29;;;;;;;22.88;8.57;;;-0.20;99.90;;;;;;5053913;28;20174;-41
2022/12/15 05:32:07;;;;;;;18.15;7.78;;;-0.70;99.90;;;;;;5052874;28;20074;-42
2022/12/15 05:34:34;;;;;;;26.77;9.40;;;-0.70;99.90;;;;;;5052500;28;20021;-39
2022/12/15 05:37:02;;;;;;;21.10;7.97;;;-0.80;99.90;;;;;;5051758;28;20488;-46
2022/12/15 05:39:29;;;;;;;22.23;7.72;;;-0.70;99.90;;;;;;5027155;28;20025;-41
2022/12/15 05:41:55;;;;;;;16.20;8.77;;;-0.80;99.90;;;;;;5051925;28;20029;-43
2022/12/15 05:44:22;;;;;;;21.27;9.40;;;-0.80;99.90;;;;;;5051904;28;20319;-41
2022/12/15 05:46:48;;;;;;;17.83;8.75;;;-0.80;99.90;;;;;;5051781;28;20078;-40
2022/12/15 05:49:15;;;;;;;18.90;8.57;;;-0.80;99.90;;;;;;5052277;28;20101;-41
2022/12/15 05:51:43;;;;;;;18.52;7.97;;;-0.80;99.90;;;;;;5052225;28;20083;-42
2022/12/15 05:54:10;;;;;;;22.83;8.65;;;-0.70;99.90;;;;;;5052076;28;20107;-42
2022/12/15 05:56:36;;;;;;;17.67;8.25;;;-0.70;99.90;;;;;;5051312;28;20406;-41
2022/12/15 05:59:03;;;;;;;21.60;8.50;;;-0.60;99.90;;;;;;5052034;28;20036;-40
2022/12/15 06:01:33;;;;;;;18.83;8.27;;;-0.60;99.90;;;;;;5051962;28;20691;-41
2022/12/15 06:04:00;;;;;;;23.08;8.43;;;-0.60;99.90;;;;;;5050728;28;20055;-42
2022/12/15 06:06:26;;;;;;;14.35;7.65;;;-0.60;99.90;;;;;;5051838;28;20027;-41
2022/12/15 06:08:52;;;;;;;15.30;8.43;;;-0.70;99.90;;;;;;5052303;28;20025;-41
2022/12/15 06:11:19;;;;;;;21.80;8.43;;;-0.80;99.90;;;;;;5051860;28;20039;-41
2022/12/15 06:13:45;;;;;;;18.52;8.10;;;-0.70;99.90;;;;;;5050524;28;20025;-41
2022/12/15 06:16:14;;;;;;;14.85;8.23;;;-0.70;99.90;;;;;;5051723;28;20044;-39
2022/12/15 06:18:42;;;;;;;20.27;8.30;;;-0.70;99.90;;;;;;5051297;28;20031;-41
2022/12/15 06:21:13;;;;;;;15.50;7.45;;;-0.70;99.90;;;;;;5051402;28;20067;-41
2022/12/15 06:23:40;;;;;;;22.52;8.23;;;-0.70;99.90;;;;;;5049870;28;20543;-41
2022/12/15 06:26:24;;;;;;;22.88;8.25;;;-0.70;99.90;;;;;;5051446;28;20029;-43
2022/12/15 06:28:51;;;;;;;14.23;7.80;;;-0.70;99.90;;;;;;5051421;28;20478;-42
2022/12/15 06:31:21;;;;;;;17.15;7.55;;;-0.70;99.90;;;;;;5050177;28;20036;-41
2022/12/15 06:33:56;;;;;;;17.63;7.60;;;-0.50;1.00;;;;;;5051358;28;20593;-41
2022/12/15 06:36:27;;;;;;;16.90;7.97;;;-0.50;1.00;;;;;;5051148;28;20464;-41
2022/12/15 06:38:53;;;;;;;21.10;9.20;;;-0.50;1.00;;;;;;5051524;28;20096;-41
2022/12/15 06:41:20;;;;;;;17.70;6.85;;;-0.50;1.00;;;;;;5051085;28;20053;-41
2022/12/15 06:43:51;;;;;;;23.73;7.32;;;-0.40;99.90;;;;;;5051413;28;20059;-42
2022/12/15 06:46:17;;;;;;;15.20;7.03;;;-0.40;99.90;;;;;;5051052;28;20113;-47
2022/12/15 06:48:44;;;;;;;12.88;7.40;;;-0.30;99.90;;;;;;5050373;28;20660;-41
2022/12/15 06:51:12;;;;;;;21.70;7.75;;;-0.30;99.90;;;;;;5050843;28;20029;-40
2022/12/15 06:53:39;;;;;;;14.13;7.35;;;-0.20;99.90;;;;;;5051272;28;20474;-43
2022/12/15 06:56:12;;;;;;;15.02;6.70;;;-0.10;99.90;;;;;;5050783;28;20025;-42
2022/12/15 06:58:38;;;;;;;17.83;7.38;;;-0.20;99.90;;;;;;5051039;28;20025;-41
2022/12/15 07:01:08;;;;;;;12.32;6.57;;;-0.20;99.90;;;;;;5050842;28;20190;-42
2022/12/15 07:03:34;;;;;;;13.00;6.97;;;-0.10;99.90;;;;;;5050917;28;20021;-41
2022/12/15 07:06:03;;;;;;;17.88;7.32;;;-0.10;99.90;;;;;;5049745;28;20362;-41
2022/12/15 07:08:29;;;;;;;15.70;6.70;;;0.00;99.90;;;;;;5054023;28;20032;-41
2022/12/15 07:10:55;;;;;;;20.58;7.53;;;0.00;99.90;;;;;;5055094;28;20025;-42
2022/12/15 07:13:20;;;;;;;20.73;7.18;;;0.10;99.90;;;;;;5053606;28;20029;-43
2022/12/15 07:15:48;;;;;;;17.35;7.88;;;0.00;56.00;;;;;;5053626;28;20033;-42
2022/12/15 07:18:15;;;;;;;14.95;5.72;;;-0.10;25.30;;;;;;5054710;28;20416;-42
2022/12/15 07:20:41;;;;;;;15.63;7.80;;;-0.10;1.30;;;;;;5054692;28;20068;-42
2022/12/15 07:23:08;;;;;;;18.48;6.90;;;-0.10;1.00;;;;;;5053320;28;20076;-41
2022/12/15 07:25:38;;;;;;;21.92;6.95;;;-0.10;1.00;;;;;;5054647;28;20017;-43
2022/12/15 07:28:05;;;;;;;13.52;7.53;;;-0.10;1.00;;;;;;5054633;28;20025;-43
2022/12/15 07:30:31;;;;;;;14.65;6.95;;;0.00;1.00;;;;;;5054564;28;20477;-40
2022/12/15 07:32:57;;;;;;;10.93;6.47;;;-0.10;1.00;;;;;;5053584;28;20451;-41
2022/12/15 07:35:23;;;;;;;15.13;6.97;;;0.00;1.00;;;;;;5055002;28;20087;-41
2022/12/15 07:37:49;;;;;;;15.32;7.35;;;0.00;1.00;;;;;;5054802;28;20033;-41
2022/12/15 07:40:15;;;;;;;17.23;7.13;;;0.00;99.90;;;;;;5065771;28;20024;-44
2022/12/15 07:42:41;;;;;;;17.70;6.78;;;0.00;99.90;;;;;;5073072;28;20040;-40
2022/12/15 07:45:07;;;;;;;16.35;7.43;;;0.00;99.90;;;;;;5062121;28;20024;-42
2022/12/15 07:47:33;;;;;;;17.77;7.50;;;-0.10;99.90;;;;;;5062277;28;20115;-40
2022/12/15 07:49:59;;;;;;;15.55;7.22;;;-0.10;99.90;;;;;;5055559;28;20446;-42
2022/12/15 07:52:25;;;;;;;14.77;6.60;;;-0.20;99.90;;;;;;5053198;28;20025;-41
2022/12/15 07:54:50;;;;;;;18.42;7.00;;;-0.20;99.90;;;;;;5052083;28;20078;-41
2022/12/15 07:57:16;;;;;;;18.55;6.82;;;-0.30;99.90;;;;;;5066925;28;20389;-42
2022/12/15 07:59:42;;;;;;;18.00;6.93;;;-0.30;99.90;;;;;;5072882;28;20408;-42
2022/12/15 08:02:12;;;;;;;12.80;6.70;;;-0.30;99.90;;;;;;5073760;28;20060;-42
2022/12/15 08:04:39;;;;;;;15.90;7.20;;;-0.30;99.90;;;;;;5073061;28;20021;-42
2022/12/15 08:07:05;;;;;;;18.75;7.63;;;-0.40;99.90;;;;;;5072753;28;20059;-41
2022/12/15 08:09:31;;;;;;;16.15;6.93;;;-0.30;99.90;;;;;;5066094;28;20052;-45
2022/12/15 08:11:57;;;;;;;14.32;6.35;;;-0.40;99.90;;;;;;5074044;28;20051;-43
2022/12/15 08:14:23;;;;;;;16.38;6.35;;;-0.40;99.90;;;;;;5074031;28;20429;-43
2022/12/15 08:16:48;;;;;;;17.08;6.65;;;-0.30;99.90;;;;;;5058661;28;20420;-42
2022/12/15 08:19:15;;;;;;;14.45;7.28;;;-0.30;99.90;;;;;;5067923;28;20385;-45
2022/12/15 08:21:42;;;;;;;16.95;6.63;;;-0.30;99.90;;;;;;5053094;28;20037;-44
2022/12/15 08:24:09;;;;;;;9.65;5.63;;;-0.30;99.90;;;;;;5052495;28;20025;-45
2022/12/15 08:26:36;;;;;;;19.40;7.03;;;-0.20;99.90;;;;;;5061399;28;20047;-44
2022/12/15 08:29:04;;;;;;;17.17;6.82;;;-0.30;99.90;;;;;;5073388;28;20020;-47
2022/12/15 08:31:32;;;;;;;16.80;6.95;;;-0.20;99.90;;;;;;5073755;28;20077;-47
2022/12/15 08:33:59;;;;;;;11.50;6.25;;;-0.20;99.90;;;;;;5073755;28;20111;-46
2022/12/15 08:36:24;;;;;;;10.60;5.40;;;-0.30;99.90;;;;;;5073648;28;20024;-44
2022/12/15 08:38:50;;;;;;;14.82;6.30;;;-0.30;99.90;;;;;;5073550;28;20074;-44
2022/12/15 08:41:19;;;;;;;14.65;6.40;;;-0.30;99.90;;;;;;5073185;28;20024;-42
2022/12/15 08:43:46;;;;;;;16.40;6.55;;;-0.30;99.90;;;;;;5073183;28;20044;-46
2022/12/15 08:46:12;;;;;;;16.65;6.32;;;-0.30;99.90;;;;;;5073335;28;20096;-43
2022/12/15 08:48:38;;;;;;;16.35;6.20;;;-0.30;99.90;;;;;;5073169;28;20384;-45
2022/12/15 08:51:05;;;;;;;14.10;5.45;;;-0.20;99.90;;;;;;5073260;28;20104;-46
2022/12/15 08:53:30;;;;;;;15.20;6.13;;;-0.20;99.90;;;;;;5072930;28;20024;-45
2022/12/15 08:56:02;;;;;;;16.23;5.88;;;-0.20;99.90;;;;;;5073029;28;20029;-46
2022/12/15 08:58:28;;;;;;;13.15;5.97;;;-0.20;99.90;;;;;;5073349;28;20104;-47
2022/12/15 09:01:02;;;;;;;9.15;5.22;;;-0.10;99.90;;;;;;5072669;28;20108;-46
2022/12/15 09:03:28;;;;;;;14.70;6.03;;;-0.10;99.90;;;;;;5073002;28;20032;-45
2022/12/15 09:05:56;;;;;;;12.45;5.60;;;-0.10;99.90;;;;;;5073095;28;20103;-44
2022/12/15 09:08:23;;;;;;;14.40;6.13;;;-0.20;99.90;;;;;;5066846;28;20086;-45
2022/12/15 09:10:49;;;;;;;13.43;5.50;;;-0.20;99.90;;;;;;5061654;28;20465;-45
2022/12/15 09:13:15;;;;;;;13.93;5.85;;;-0.20;99.90;;;;;;5052446;28;20025;-46
2022/12/15 09:15:42;;;;;;;20.27;5.93;;;-0.20;99.90;;;;;;5052532;28;20078;-45
2022/12/15 09:18:08;;;;;;;10.98;5.55;;;-0.20;99.90;;;;;;5039748;28;20071;-47
2022/12/15 09:20:34;;;;;;;12.30;5.03;;;-0.20;99.90;;;;;;5061586;28;20586;-48
2022/12/15 09:22:59;;;;;;;12.07;5.13;;;-0.10;99.90;;;;;;5052659;28;20127;-46
2022/12/15 09:25:25;;;;;;;13.35;5.15;;;-0.10;99.90;;;;;;5032485;28;20021;-46
2022/12/15 09:27:50;;;;;;;12.15;5.45;;;-0.10;99.90;;;;;;5048628;28;20067;-51
2022/12/15 09:30:16;;;;;;;16.55;5.25;;;-0.10;99.90;;;;;;5051937;28;20029;-46
2022/12/15 09:32:42;;;;;;;9.23;4.93;;;-0.10;99.90;;;;;;5052081;28;20055;-46
2022/12/15 09:35:08;;;;;;;10.65;5.22;;;0.00;99.90;;;;;;5056932;28;20036;-43
2022/12/15 09:37:34;;;;;;;9.65;5.05;;;0.00;99.90;;;;;;5070214;28;20435;-45
2022/12/15 09:40:00;;;;;;;14.30;4.90;;;0.00;99.90;;;;;;5069959;28;20476;-48
2022/12/15 09:42:30;;;;;;;15.48;4.90;;;0.10;99.90;;;;;;5057449;28;20385;-43
2022/12/15 09:45:12;;;;;;;13.43;5.40;;;0.10;99.90;;;;;;5054295;28;20053;-45
2022/12/15 09:47:41;;;;;;;16.02;4.95;;;0.10;99.90;;;;;;5058920;28;20029;-43
2022/12/15 09:50:12;;;;;;;13.63;5.20;;;0.10;99.90;;;;;;5052106;28;20071;-45
2022/12/15 09:52:52;;;;;;;12.98;4.50;;;0.10;99.90;;;;;;5058834;28;20173;-46
2022/12/15 09:55:23;;;;;;;7.53;4.13;;;0.20;99.90;;;;;;5071776;28;20091;-43
2022/12/15 09:58:10;;;;;;;11.20;4.57;;;0.30;99.90;;;;;;5057554;28;20033;-45
2022/12/15 10:00:51;;;;;;;11.57;5.03;;;0.40;99.90;;;;;;5031831;28;20041;-44
2022/12/15 10:03:44;;;;;;;15.60;5.85;;;0.40;99.90;;;;;;5050839;28;20037;-44
2022/12/15 10:06:13;;;;;;;14.57;4.88;;;0.40;99.90;;;;;;5049440;28;20550;-44
2022/12/15 10:09:08;;;;;;;12.02;5.25;;;0.30;99.90;;;;;;5059493;28;20032;-50
2022/12/15 10:12:03;;;;;;;16.10;6.30;;;0.30;99.90;;;;;;5067815;28;20063;-45
2022/12/15 10:14:36;;;;;;;13.77;6.03;;;0.20;99.90;;;;;;5040714;28;20022;-42
2022/12/15 10:17:05;;;;;;;11.70;5.82;;;0.20;99.90;;;;;;5042257;28;20120;-43
2022/12/15 10:19:34;;;;;;;12.10;6.10;;;0.20;99.90;;;;;;5051613;28;20074;-43
2022/12/15 10:21:59;;;;;;;11.80;5.82;;;0.10;99.90;;;;;;5051286;28;20603;-43
2022/12/15 10:24:29;;;;;;;11.57;5.38;;;0.20;99.90;;;;;;5051331;28;20067;-43
2022/12/15 10:27:21;;;;;;;14.57;5.15;;;0.30;99.90;;;;;;5051313;28;20560;-42
2022/12/15 10:30:00;;;;;;;11.95;5.20;;;0.30;99.90;;;;;;5051435;28;20067;-44
2022/12/15 10:32:43;;;;;;;7.88;4.90;;;0.40;99.90;;;;;;5051285;28;20017;-42
2022/12/15 10:35:24;;;;;;;18.48;5.53;;;0.40;99.90;;;;;;5051335;28;20021;-43
2022/12/15 10:37:49;;;;;;;9.80;5.28;;;0.50;99.90;;;;;;5042538;28;20443;-45
2022/12/15 10:40:39;;;;;;;10.38;5.05;;;0.50;99.90;;;;;;5045834;28;20428;-47
2022/12/15 10:43:13;;;;;;;11.00;5.60;;;0.60;99.90;;;;;;5055726;28;20056;-49
2022/12/15 10:45:39;;;;;;;16.85;8.30;;;0.60;99.90;;;;;;5051046;28;20388;-47
2022/12/15 10:48:16;;;;;;;11.88;4.65;;;0.70;99.90;;;;;;5050610;28;20104;-47
2022/12/15 10:50:42;;;;;;;10.43;4.60;;;0.80;99.90;;;;;;5051383;28;20090;-45
2022/12/15 10:53:08;;;;;;;12.95;4.88;;;0.90;99.90;;;;;;5050927;28;20029;-45
2022/12/15 10:55:42;;;;;;;11.90;4.32;;;1.00;99.90;;;;;;5043708;28;20535;-45
2022/12/15 10:58:25;;;;;;;13.48;5.15;;;1.10;99.90;;;;;;5031499;28;20021;-43
2022/12/15 11:01:15;;;;;;;8.55;4.50;;;1.20;99.90;;;;;;5039717;28;20052;-44
2022/12/15 11:03:50;;;;;;;7.60;4.03;;;1.20;99.90;;;;;;5063505;28;20136;-43
2022/12/15 11:06:31;;;;;;;9.00;4.75;;;1.30;99.90;;;;;;5053166;28;20479;-43
2022/12/15 11:09:27;;;;;;;11.55;4.30;;;1.40;99.90;;;;;;5045373;28;20056;-44
2022/12/15 11:14:49;;;;;;;9.90;4.57;;;1.50;99.90;;;;;;5031170;28;20555;-44
2022/12/15 11:17:18;;;;;;;13.10;5.25;;;1.60;99.90;;;;;;5031458;28;20025;-45
2022/12/15 11:20:02;;;;;;;10.05;4.65;;;1.60;99.90;;;;;;5049881;28;20025;-47
2022/12/15 11:22:50;;;;;;;12.98;5.57;;;1.60;99.90;;;;;;5070713;28;20037;-48
2022/12/15 11:25:32;;;;;;;14.60;5.60;;;1.70;99.90;;;;;;5070856;28;20236;-45
2022/12/15 11:28:01;;;;;;;14.35;5.20;;;1.70;99.90;;;;;;5067466;28;20024;-45
2022/12/15 11:30:40;;;;;;;8.50;4.85;;;1.80;99.90;;;;;;5070651;28;20094;-47
2022/12/15 11:33:09;;;;;;;11.60;5.28;;;1.80;99.90;;;;;;5056793;28;20030;-44
2022/12/15 11:35:53;;;;;;;14.45;5.57;;;1.90;99.90;;;;;;5063905;28;20144;-47
2022/12/15 11:38:33;;;;;;;12.10;5.70;;;2.00;99.90;;;;;;5069814;28;20020;-44
2022/12/15 11:41:31;;;;;;;8.98;5.20;;;2.00;99.90;;;;;;5062949;28;20025;-43
2022/12/15 11:44:02;;;;;;;12.52;5.53;;;2.00;99.90;;;;;;5029079;28;21284;-48
2022/12/15 11:46:41;;;;;;;13.73;5.85;;;2.10;99.90;;;;;;5050392;28;20070;-49
2022/12/15 11:49:44;;;;;;;10.75;5.22;;;2.10;99.90;;;;;;5050521;28;20523;-45
2022/12/15 11:52:44;;;;;;;13.05;5.63;;;2.30;99.90;;;;;;5030580;28;20025;-44
2022/12/15 11:55:35;;;;;;;11.98;5.57;;;2.40;99.90;;;;;;5032826;28;20029;-44
2022/12/15 11:58:20;;;;;;;11.73;5.93;;;2.40;99.90;;;;;;5034220;28;20017;-45
2022/12/15 12:01:25;;;;;;;11.80;5.88;;;2.60;99.90;;;;;;5033851;28;20029;-46
2022/12/15 12:04:05;;;;;;;16.17;6.20;;;3.10;99.90;;;;;;5042931;28;20051;-47
2022/12/15 12:06:38;;;;;;;10.80;5.40;;;3.30;99.90;;;;;;5069842;28;20043;-45
2022/12/15 12:09:19;;;;;;;12.02;5.85;;;3.50;99.90;;;;;;5034446;28;20091;-48
2022/12/15 12:11:54;;;;;;;11.70;5.80;;;3.50;99.90;;;;;;5049151;28;20029;-44
2022/12/15 12:14:31;;;;;;;11.82;5.95;;;3.50;99.90;;;;;;5033943;28;20113;-46
2022/12/15 12:17:09;;;;;;;13.30;6.25;;;3.60;99.90;;;;;;5034059;28;20537;-46
2022/12/15 12:19:44;;;;;;;13.32;6.45;;;3.80;99.90;;;;;;5044774;28;20033;-47
2022/12/15 12:22:25;;;;;;;13.60;6.47;;;4.00;99.90;;;;;;5053574;28;20400;-48
2022/12/15 12:25:16;;;;;;;12.05;6.65;;;4.40;99.90;;;;;;5050577;28;20559;-47
2022/12/15 12:27:54;;;;;;;10.35;6.57;;;4.70;99.90;;;;;;5053987;28;20128;-46
2022/12/15 12:30:23;;;;;;;12.05;6.70;;;5.30;99.90;;;;;;5053734;28;20031;-48
2022/12/15 12:32:54;;;;;;;11.80;6.55;;;6.20;99.90;;;;;;5063140;28;20465;-46
2022/12/15 12:35:41;;;;;;;17.65;7.15;;;7.10;99.90;;;;;;5073468;28;20557;-48
2022/12/15 12:38:10;;;;;;;10.98;5.97;;;7.80;99.90;;;;;;5072136;28;20027;-47
2022/12/15 12:40:42;;;;;;;11.82;6.57;;;8.40;99.90;;;;;;5069083;28;20040;-46
2022/12/15 12:43:11;;;;;;;11.80;5.93;;;8.70;99.90;;;;;;5033394;28;20335;-47
2022/12/15 12:45:55;;;;;;;12.63;6.78;;;9.10;99.90;;;;;;5033759;28;20052;-46
2022/12/15 12:48:39;;;;;;;9.43;5.55;;;9.30;99.90;;;;;;5073021;28;20054;-45
2022/12/15 12:51:31;;;;;;;14.05;6.20;;;9.20;99.90;;;;;;5072292;28;20385;-49
2022/12/15 12:53:58;;;;;;;11.02;7.45;;;9.30;99.90;;;;;;5073141;28;20032;-48
2022/12/15 12:56:35;;;;;;;10.68;6.65;;;9.00;99.90;;;;;;5073034;28;20040;-48
2022/12/15 12:59:07;;;;;;;12.45;6.22;;;9.00;99.90;;;;;;5045375;28;20392;-46
2022/12/15 13:01:33;;;;;;;;;;;9.00;99.90;;;;;;5033394;28;20060;-49
2022/12/15 13:04:34;;;;;;;10.23;5.47;;;8.90;99.90;;;;;;5031759;28;19905;-47
2022/12/15 13:07:24;;;;;;;11.02;6.07;;;9.20;99.90;;;;;;5007990;28;20041;-49
2022/12/15 13:10:08;;;;;;;12.85;5.78;;;9.40;99.90;;;;;;5056983;28;20108;-47
2022/12/15 13:12:45;;;;;;;10.27;5.78;;;9.60;99.90;;;;;;5072838;28;20470;-46
2022/12/15 13:15:28;;;;;;;7.97;5.00;;;9.90;99.90;;;;;;5058977;28;20033;-48
2022/12/15 13:18:13;;;;;;;10.38;5.65;;;10.00;99.90;;;;;;5032815;28;20052;-49
2022/12/15 13:20:40;;;;;;;11.60;5.20;;;10.00;99.90;;;;;;5060691;28;20037;-46
2022/12/15 13:23:21;;;;;;;9.05;5.55;;;10.10;99.90;;;;;;5052507;28;20037;-46
2022/12/15 13:25:52;;;;;;;12.68;5.43;;;10.30;99.90;;;;;;5063895;28;20020;-48
2022/12/15 13:28:41;;;;;;;12.68;6.28;;;10.40;99.90;;;;;;5060109;28;20082;-51
2022/12/15 13:31:16;;;;;;;12.32;6.18;;;10.50;99.90;;;;;;5072413;28;20548;-45
2022/12/15 13:33:54;;;;;;;14.20;6.28;;;10.60;99.90;;;;;;5033469;28;20040;-51
2022/12/15 13:36:38;;;;;;;12.55;6.28;;;10.80;99.90;;;;;;5052993;28;20500;-45
2022/12/15 13:39:16;;;;;;;9.43;5.90;;;10.70;99.90;;;;;;5072040;28;20103;-46
2022/12/15 13:41:48;;;;;;;11.25;6.03;;;10.90;99.90;;;;;;5071959;28;20035;-47
2022/12/15 13:44:40;;;;;;;11.88;6.60;;;11.10;99.90;;;;;;5069156;28;20557;-50
2022/12/15 13:47:11;;;;;;;10.70;5.88;;;11.10;99.90;;;;;;5071995;28;20488;-48
2022/12/15 13:49:42;;;;;;;12.07;6.00;;;11.30;99.90;;;;;;5050986;28;20021;-49
2022/12/15 13:52:33;;;;;;;9.40;4.70;;;11.40;99.90;;;;;;5031929;28;20087;-47
2022/12/15 13:55:02;;;;;;;8.30;5.25;;;11.60;99.90;;;;;;5049635;28;20036;-49
2022/12/15 13:57:33;;;;;;;7.35;4.55;;;11.50;99.90;;;;;;5071634;28;20020;-48
2022/12/15 14:00:05;;;;;;;9.02;5.03;;;11.60;99.90;;;;;;5071674;28;20029;-48
2022/12/15 14:02:34;;;;;;;9.95;5.65;;;11.50;99.90;;;;;;5068801;28;20209;-50
2022/12/15 14:05:24;;;;;;;10.65;5.32;;;11.30;99.90;;;;;;5053894;28;20100;-46
2022/12/15 14:07:53;;;;;;;9.80;5.13;;;11.30;99.90;;;;;;5051567;28;20071;-49
2022/12/15 14:10:41;;;;;;;8.38;5.03;;;11.30;99.90;;;;;;5051522;28;20048;-49
2022/12/15 14:13:19;;;;;;;9.50;4.95;;;11.40;99.90;;;;;;5051784;28;20017;-49
2022/12/15 14:15:51;;;;;;;9.90;4.30;;;11.30;99.90;;;;;;5050882;28;20032;-52
2022/12/15 14:18:37;;;;;;;;;;;11.20;99.90;;;;;;5051247;28;20024;-47
2022/12/15 14:21:25;;;;;;;6.13;3.95;;;11.30;99.90;;;;;;5065233;28;19919;-49
2022/12/15 14:23:52;;;;;;;6.63;4.03;;;11.40;99.90;;;;;;5055476;28;20337;-52
2022/12/15 14:26:17;;;;;;;8.75;4.15;;;11.50;99.90;;;;;;5049928;28;20018;-49
2022/12/15 14:28:45;;;;;;;9.15;4.72;;;11.40;99.90;;;;;;5030205;28;20056;-49
2022/12/15 14:31:18;;;;;;;8.50;4.63;;;11.30;99.90;;;;;;5042317;28;20029;-50
2022/12/15 14:33:47;;;;;;;10.07;4.28;;;11.40;99.90;;;;;;5044859;28;20474;-49
2022/12/15 14:36:15;;;;;;;8.63;4.82;;;11.50;99.90;;;;;;5030934;28;20809;-49
2022/12/15 14:38:43;;;;;;;6.57;4.03;;;11.30;99.90;;;;;;5031411;28;20033;-49
2022/12/15 14:41:24;;;;;;;7.03;3.97;;;11.40;99.90;;;;;;5031548;28;20458;-50
2022/12/15 14:43:54;;;;;;;7.47;4.40;;;11.10;99.90;;;;;;5031208;28;20032;-49
2022/12/15 14:46:23;;;;;;;9.05;3.60;;;11.10;99.90;;;;;;5031483;28;20026;-48
2022/12/15 14:48:56;;;;;;;8.60;4.30;;;11.10;99.90;;;;;;5031202;28;20532;-49
2022/12/15 14:51:24;;;;;;;8.10;4.20;;;10.90;99.90;;;;;;5031214;28;20025;-51
2022/12/15 14:53:51;;;;;;;7.53;4.25;;;10.80;99.90;;;;;;5031130;28;20108;-45
2022/12/15 14:56:17;;;;;;;7.70;3.83;;;10.70;99.90;;;;;;5030957;28;20022;-47
2022/12/15 14:59:05;;;;;;;8.23;3.97;;;10.50;99.90;;;;;;5031074;28;20112;-47
2022/12/15 15:01:50;;;;;;;7.75;3.92;;;10.70;99.90;;;;;;5030199;28;20629;-53
2022/12/15 15:04:22;;;;;;;8.13;4.53;;;10.50;99.90;;;;;;5031122;28;20401;-50
2022/12/15 15:06:53;;;;;;;8.68;4.25;;;10.40;99.90;;;;;;5031028;28;20071;-45
2022/12/15 15:09:24;;;;;;;9.80;3.83;;;10.10;99.90;;;;;;5030841;28;20513;-49
2022/12/15 15:12:00;;;;;;;8.73;4.03;;;9.80;99.90;;;;;;5030876;28;20064;-46
2022/12/15 15:15:07;;;;;;;9.95;4.90;;;9.80;99.90;;;;;;5030840;28;20026;-47
2022/12/15 15:17:43;;;;;;;10.77;4.72;;;10.00;99.90;;;;;;5028079;28;20417;-46
2022/12/15 15:20:36;;;;;;;10.25;4.63;;;;;;;;;;5030446;28;20034;-46
2022/12/15 15:23:17;;;;;;;8.80;4.10;;;9.80;99.90;;;;;;5030405;28;20050;-46
2022/12/15 15:25:53;;;;;;;11.50;4.55;;;9.40;99.90;;;;;;5030789;28;20026;-51
2022/12/15 15:28:21;;;;;;;11.02;4.68;;;9.30;99.90;;;;;;5031905;28;20034;-47
2022/12/15 15:31:04;;;;;;;8.65;3.75;;;8.90;99.90;;;;;;5034853;28;20022;-48